createdAt,value
2023-01-08T00:00:18.021Z,99747.71
2023-01-08T00:03:26.754Z,99747.20
2023-01-08T00:06:19.675Z,99736.46
2023-01-08T00:09:08.142Z,99732.61
2023-01-08T00:11:56.413Z,99723.07
2023-01-08T00:14:45.569Z,99729.82
2023-01-08T00:17:33.916Z,99728.65
2023-01-08T00:20:22.826Z,99727.38
2023-01-08T00:23:16.367Z,99727.41
2023-01-08T00:26:08.031Z,99730.00
2023-01-08T00:28:56.223Z,99728.75
2023-01-08T00:31:45.461Z,99730.58
2023-01-08T00:34:33.857Z,99723.20
2023-01-08T00:37:22.430Z,99723.66
2023-01-08T00:40:11.439Z,99725.01
2023-01-08T00:42:59.595Z,99720.61
2023-01-08T00:45:48.008Z,99724.11
2023-01-08T00:48:39.234Z,99717.75
2023-01-08T00:51:27.821Z,99718.48
2023-01-08T00:54:16.264Z,99712.88
2023-01-08T00:57:04.346Z,99713.10
2023-01-08T00:59:55.668Z,99719.27
2023-01-08T01:02:45.783Z,99715.73
2023-01-08T01:05:36.432Z,99717.27
2023-01-08T01:08:25.000Z,99717.37
2023-01-08T01:11:26.897Z,99712.10
2023-01-08T01:14:15.200Z,99718.55
2023-01-08T01:17:05.301Z,99710.78
2023-01-08T01:19:53.633Z,99703.48
2023-01-08T01:22:42.683Z,99701.47
2023-01-08T01:25:30.638Z,99693.17
2023-01-08T01:28:19.167Z,99689.20
2023-01-08T01:31:07.884Z,99679.39
2023-01-08T01:33:56.688Z,99676.54
2023-01-08T01:36:46.795Z,99669.80
2023-01-08T01:39:37.576Z,99664.15
2023-01-08T01:42:41.619Z,99658.83
2023-01-08T01:45:31.518Z,99657.36
2023-01-08T01:48:19.926Z,99658.61
2023-01-08T01:51:08.279Z,99653.33
2023-01-08T01:53:56.850Z,99651.75
2023-01-08T01:56:46.414Z,99647.35
2023-01-08T01:59:34.658Z,99642.92
2023-01-08T02:02:23.187Z,99646.25
2023-01-08T02:05:12.316Z,99647.47
2023-01-08T02:08:12.889Z,99642.70
2023-01-08T02:11:14.871Z,99641.96
2023-01-08T02:14:16.843Z,99652.27
2023-01-08T02:17:10.916Z,99648.77
2023-01-08T02:20:31.935Z,99647.61
2023-01-08T02:23:49.429Z,99639.16
2023-01-08T02:26:38.965Z,99639.02
2023-01-08T02:29:29.491Z,99637.28
2023-01-08T02:32:17.794Z,99634.20
2023-01-08T02:35:08.278Z,99627.52
2023-01-08T02:37:56.841Z,99617.83
2023-01-08T02:41:15.953Z,99607.00
2023-01-08T02:44:05.942Z,99608.30
2023-01-08T02:46:56.200Z,99606.54
2023-01-08T02:49:47.335Z,99602.13
2023-01-08T02:52:43.028Z,99601.05
2023-01-08T02:55:34.540Z,99600.23
2023-01-08T02:58:24.835Z,99610.86
2023-01-08T03:01:16.568Z,99611.33
2023-01-08T03:04:19.860Z,99605.67
2023-01-08T03:07:08.338Z,99603.56
2023-01-08T03:09:56.869Z,99602.83
2023-01-08T03:13:04.887Z,99594.09
2023-01-08T03:16:01.195Z,99596.91
2023-01-08T03:18:54.692Z,99591.95
2023-01-08T03:21:44.880Z,99596.43
2023-01-08T03:24:38.388Z,99592.21
2023-01-08T03:27:32.731Z,99592.81
2023-01-08T03:30:22.312Z,99587.05
2023-01-08T03:33:13.512Z,99593.61
2023-01-08T03:36:05.762Z,99585.96
2023-01-08T03:39:26.363Z,99593.81
2023-01-08T03:42:19.529Z,99587.73
2023-01-08T03:45:09.105Z,99588.58
2023-01-08T03:48:00.165Z,99585.02
2023-01-08T03:50:49.503Z,99584.67
2023-01-08T03:53:37.832Z,99591.01
2023-01-08T03:56:26.486Z,99595.91
2023-01-08T03:59:16.239Z,99597.14
2023-01-08T04:02:04.753Z,99588.35
2023-01-08T04:04:52.864Z,99591.55
2023-01-08T04:07:41.521Z,99592.52
2023-01-08T04:10:29.976Z,99584.25
2023-01-08T04:13:18.230Z,99577.95
2023-01-08T04:16:08.316Z,99576.42
2023-01-08T04:18:56.651Z,99576.72
2023-01-08T04:21:45.203Z,99572.85
2023-01-08T04:24:33.672Z,99574.71
2023-01-08T04:27:25.441Z,99573.48
2023-01-08T04:30:14.587Z,99569.35
2023-01-08T04:33:02.690Z,99567.91
2023-01-08T04:35:50.858Z,99558.41
2023-01-08T04:38:39.594Z,99553.34
2023-01-08T04:41:28.314Z,99548.25
2023-01-08T04:44:17.210Z,99548.94
2023-01-08T04:47:05.789Z,99543.02
2023-01-08T04:49:54.212Z,99530.80
2023-01-08T04:52:42.866Z,99535.70
2023-01-08T04:55:31.330Z,99535.03
2023-01-08T04:58:19.775Z,99535.48
2023-01-08T05:01:22.013Z,99536.86
2023-01-08T05:04:11.735Z,99530.68
2023-01-08T05:06:59.993Z,99517.36
2023-01-08T05:09:48.125Z,99508.05
2023-01-08T05:12:36.773Z,99491.98
2023-01-08T05:15:26.382Z,99478.19
2023-01-08T05:18:15.434Z,99477.04
2023-01-08T05:21:05.324Z,99474.55
2023-01-08T05:23:53.436Z,99466.13
2023-01-08T05:26:41.577Z,99470.45
2023-01-08T05:29:30.271Z,99475.24
2023-01-08T05:32:19.588Z,99466.11
2023-01-08T05:35:08.571Z,99466.48
2023-01-08T05:37:59.610Z,99460.40
2023-01-08T05:40:48.131Z,99453.91
2023-01-08T05:43:37.533Z,99447.02
2023-01-08T05:46:25.681Z,99440.34
2023-01-08T05:49:16.152Z,99437.35
2023-01-08T05:52:05.310Z,99432.81
2023-01-08T05:54:53.562Z,99435.64
2023-01-08T05:57:41.430Z,99428.26
2023-01-08T06:00:30.236Z,99423.07
2023-01-08T06:03:22.466Z,99423.71
2023-01-08T06:06:12.268Z,99420.68
2023-01-08T06:09:00.995Z,99426.91
2023-01-08T06:11:49.423Z,99420.41
2023-01-08T06:14:37.463Z,99411.46
2023-01-08T06:17:25.804Z,99403.85
2023-01-08T06:20:14.051Z,99391.64
2023-01-08T06:23:02.768Z,99387.67
2023-01-08T06:25:57.129Z,99397.56
2023-01-08T06:28:45.200Z,99395.80
2023-01-08T06:31:33.881Z,99391.14
2023-01-08T06:34:21.906Z,99388.23
2023-01-08T06:37:09.617Z,99393.37
2023-01-08T06:39:57.565Z,99391.35
2023-01-08T06:42:46.489Z,99395.20
2023-01-08T06:45:34.174Z,99391.10
2023-01-08T06:48:21.911Z,99387.09
2023-01-08T06:51:10.017Z,99398.57
2023-01-08T06:53:58.315Z,99392.20
2023-01-08T06:56:53.926Z,99402.20
2023-01-08T06:59:42.603Z,99400.77
2023-01-08T07:02:30.519Z,99401.30
2023-01-08T07:05:19.090Z,99402.27
2023-01-08T07:08:10.397Z,99405.20
2023-01-08T07:11:03.925Z,99396.11
2023-01-08T07:13:52.430Z,99395.41
2023-01-08T07:16:40.414Z,99401.35
2023-01-08T07:19:28.257Z,99400.05
2023-01-08T07:22:15.893Z,99397.60
2023-01-08T07:25:05.212Z,99397.58
2023-01-08T07:27:53.030Z,99398.24
2023-01-08T07:30:40.983Z,99395.02
2023-01-08T07:33:29.005Z,99397.09
2023-01-08T07:36:22.470Z,99396.91
2023-01-08T07:39:10.288Z,99393.71
2023-01-08T07:41:58.448Z,99391.58
2023-01-08T07:44:46.743Z,99394.36
2023-01-08T07:47:34.842Z,99395.16
2023-01-08T07:50:22.977Z,99395.66
2023-01-08T07:53:13.816Z,99391.98
2023-01-08T07:56:07.066Z,99391.63
2023-01-08T07:58:54.986Z,99398.29
2023-01-08T08:01:42.946Z,99397.90
2023-01-08T08:04:31.057Z,99394.55
2023-01-08T08:07:18.930Z,99391.02
2023-01-08T08:10:07.653Z,99379.88
2023-01-08T08:12:55.856Z,99384.27
2023-01-08T08:15:43.797Z,99392.70
2023-01-08T08:18:31.977Z,99383.98
2023-01-08T08:21:19.732Z,99383.90
2023-01-08T08:24:08.182Z,99376.40
2023-01-08T08:26:56.144Z,99361.36
2023-01-08T08:29:44.261Z,99354.41
2023-01-08T08:32:32.341Z,99354.95
2023-01-08T08:35:22.430Z,99351.53
2023-01-08T08:38:14.323Z,99351.23
2023-01-08T08:41:02.442Z,99356.42
2023-01-08T08:43:51.525Z,99358.27
2023-01-08T08:46:39.263Z,99357.99
2023-01-08T08:49:27.320Z,99353.38
2023-01-08T08:52:15.632Z,99358.98
2023-01-08T08:55:03.723Z,99363.94
2023-01-08T08:57:51.677Z,99353.39
2023-01-08T09:00:45.535Z,99352.83
2023-01-08T09:03:33.402Z,99344.32
2023-01-08T09:06:21.685Z,99343.51
2023-01-08T09:09:09.417Z,99349.60
2023-01-08T09:11:57.782Z,99346.76
2023-01-08T09:14:50.332Z,99348.40
2023-01-08T09:17:38.401Z,99340.80
2023-01-08T09:20:28.311Z,99335.38
2023-01-08T09:23:16.196Z,99336.84
2023-01-08T09:26:05.304Z,99327.74
2023-01-08T09:28:52.900Z,99328.71
2023-01-08T09:31:40.690Z,99323.10
2023-01-08T09:34:29.948Z,99319.04
2023-01-08T09:37:17.955Z,99307.68
2023-01-08T09:40:06.604Z,99311.73
2023-01-08T09:43:00.780Z,99305.64
2023-01-08T09:45:56.715Z,99305.80
2023-01-08T09:48:45.168Z,99300.17
2023-01-08T09:51:39.021Z,99297.88
2023-01-08T09:54:27.287Z,99297.29
2023-01-08T09:57:20.184Z,99289.75
2023-01-08T10:00:28.694Z,99296.06
2023-01-08T10:03:16.688Z,99286.08
2023-01-08T10:06:13.498Z,99286.68
2023-01-08T10:09:01.419Z,99286.05
2023-01-08T10:11:50.860Z,99277.55
2023-01-08T10:14:48.065Z,99270.85
2023-01-08T10:17:51.543Z,99270.50
2023-01-08T10:20:39.875Z,99271.92
2023-01-08T10:23:31.245Z,99261.09
2023-01-08T10:26:36.627Z,99268.21
2023-01-08T10:29:24.762Z,99264.73
2023-01-08T10:32:20.525Z,99253.09
2023-01-08T10:35:17.730Z,99242.52
2023-01-08T10:38:06.215Z,99247.42
2023-01-08T10:40:55.748Z,99239.60
2023-01-08T10:44:04.363Z,99235.45
2023-01-08T10:46:59.126Z,99228.85
2023-01-08T10:49:47.604Z,99227.72
2023-01-08T10:52:36.603Z,99235.21
2023-01-08T10:55:26.401Z,99230.66
2023-01-08T10:58:15.823Z,99227.15
2023-01-08T11:01:20.514Z,99219.25
2023-01-08T11:04:26.929Z,99218.92
2023-01-08T11:07:23.227Z,99211.06
2023-01-08T11:10:26.012Z,99220.59
2023-01-08T11:13:20.015Z,99208.13
2023-01-08T11:16:10.825Z,99204.83
2023-01-08T11:18:58.907Z,99204.83
2023-01-08T11:22:18.202Z,99212.53
2023-01-08T11:25:14.203Z,99201.08
2023-01-08T11:28:04.676Z,99197.25
2023-01-08T11:31:09.570Z,99190.58
2023-01-08T11:34:13.697Z,99199.48
2023-01-08T11:37:24.055Z,99192.20
2023-01-08T11:40:19.000Z,99182.50
2023-01-08T11:43:51.159Z,99183.98
2023-01-08T11:47:02.190Z,99179.12
2023-01-08T11:50:34.609Z,99173.14
2023-01-08T11:53:37.345Z,99169.39
2023-01-08T11:56:50.199Z,99164.17
2023-01-08T12:00:09.276Z,99162.80
2023-01-08T12:03:17.507Z,99152.94
2023-01-08T12:06:28.308Z,99148.77
2023-01-08T12:09:22.695Z,99135.64
2023-01-08T12:12:53.259Z,99133.58
2023-01-08T12:16:11.127Z,99124.09
2023-01-08T12:19:05.643Z,99116.61
2023-01-08T12:21:59.763Z,99113.31
2023-01-08T12:25:24.430Z,99116.67
2023-01-08T12:29:00.100Z,99116.36
2023-01-08T12:32:27.961Z,99108.29
2023-01-08T12:35:23.833Z,99106.83
2023-01-08T12:38:24.337Z,99110.42
2023-01-08T12:41:16.705Z,99108.59
2023-01-08T12:44:11.971Z,99106.57
2023-01-08T12:47:04.410Z,99100.39
2023-01-08T12:50:21.874Z,99095.67
2023-01-08T12:53:37.011Z,99090.39
2023-01-08T12:57:02.987Z,99083.34
2023-01-08T13:00:19.651Z,99076.98
2023-01-08T13:03:22.909Z,99063.19
2023-01-08T13:06:19.495Z,99059.42
2023-01-08T13:09:09.065Z,99056.36
2023-01-08T13:12:00.442Z,99050.11
2023-01-08T13:14:51.789Z,99046.83
2023-01-08T13:17:41.174Z,99046.98
2023-01-08T13:20:34.235Z,99041.88
2023-01-08T13:23:30.964Z,99040.91
2023-01-08T13:26:30.405Z,99033.73
2023-01-08T13:29:41.592Z,99035.22
2023-01-08T13:32:48.705Z,99040.70
2023-01-08T13:35:39.058Z,99042.52
2023-01-08T13:38:28.799Z,99043.91
2023-01-08T13:41:42.849Z,99039.30
2023-01-08T13:44:42.970Z,99036.41
2023-01-08T13:47:37.439Z,99031.27
2023-01-08T13:50:29.602Z,99025.67
2023-01-08T13:53:19.243Z,99023.55
2023-01-08T13:56:09.836Z,99012.04
2023-01-08T13:58:58.098Z,98997.33
2023-01-08T14:02:00.410Z,98991.31
2023-01-08T14:04:52.547Z,98987.44
2023-01-08T14:07:41.022Z,98998.45
2023-01-08T14:10:31.013Z,98990.85
2023-01-08T14:13:27.861Z,98973.81
2023-01-08T14:16:17.284Z,98967.13
2023-01-08T14:19:05.675Z,98987.02
2023-01-08T14:22:04.228Z,98993.98
2023-01-08T14:24:57.471Z,99005.11
2023-01-08T14:28:19.776Z,98982.86
2023-01-08T14:31:22.503Z,98991.13
2023-01-08T14:34:11.382Z,98992.11
2023-01-08T14:36:59.451Z,98976.20
2023-01-08T14:39:55.228Z,98967.79
2023-01-08T14:42:47.263Z,98961.80
2023-01-08T14:45:38.408Z,98971.22
2023-01-08T14:48:44.073Z,98968.89
2023-01-08T14:51:32.463Z,98968.27
2023-01-08T14:54:28.774Z,98968.35
2023-01-08T14:57:18.580Z,98962.66
2023-01-08T15:00:30.208Z,98972.39
2023-01-08T15:03:41.199Z,98977.64
2023-01-08T15:06:32.599Z,98971.08
2023-01-08T15:09:35.013Z,98970.70
2023-01-08T15:12:26.463Z,98969.33
2023-01-08T15:15:24.467Z,98962.39
2023-01-08T15:18:13.111Z,98959.89
2023-01-08T15:21:01.301Z,98967.67
2023-01-08T15:23:56.658Z,98969.68
2023-01-08T15:26:44.614Z,98973.27
2023-01-08T15:29:37.202Z,98972.77
2023-01-08T15:32:40.640Z,98970.66
2023-01-08T15:35:28.584Z,98972.12
2023-01-08T15:38:17.717Z,98971.09
2023-01-08T15:41:05.979Z,98961.74
2023-01-08T15:43:54.766Z,98961.70
2023-01-08T15:46:43.027Z,98960.35
2023-01-08T15:49:33.458Z,98956.77
2023-01-08T15:52:29.702Z,98963.81
2023-01-08T15:55:21.770Z,98957.27
2023-01-08T15:58:12.731Z,98956.43
2023-01-08T16:01:00.359Z,98962.19
2023-01-08T16:03:49.019Z,98958.42
2023-01-08T16:06:37.027Z,98950.31
2023-01-08T16:09:24.850Z,98954.05
2023-01-08T16:12:13.010Z,98954.25
2023-01-08T16:15:00.915Z,98957.89
2023-01-08T16:17:48.889Z,98952.07
2023-01-08T16:20:39.099Z,98948.58
2023-01-08T16:23:27.406Z,98944.97
2023-01-08T16:26:16.119Z,98953.00
2023-01-08T16:29:03.848Z,98953.02
2023-01-08T16:31:52.095Z,98954.44
2023-01-08T16:34:39.952Z,98961.10
2023-01-08T16:37:27.858Z,98958.23
2023-01-08T16:40:16.684Z,98964.91
2023-01-08T16:43:04.706Z,98957.55
2023-01-08T16:45:53.027Z,98943.19
2023-01-08T16:48:45.479Z,98935.66
2023-01-08T16:51:33.322Z,98926.02
2023-01-08T16:54:21.861Z,98920.86
2023-01-08T16:57:10.235Z,98910.34
2023-01-08T16:59:58.223Z,98910.99
2023-01-08T17:02:45.798Z,98912.77
2023-01-08T17:05:36.990Z,98908.73
2023-01-08T17:08:28.294Z,98908.38
2023-01-08T17:11:19.918Z,98909.17
2023-01-08T17:14:08.834Z,98921.27
2023-01-08T17:16:57.094Z,98915.37
2023-01-08T17:19:44.842Z,98911.23
2023-01-08T17:22:32.939Z,98911.20
2023-01-08T17:25:21.500Z,98912.06
2023-01-08T17:28:09.222Z,98906.27
2023-01-08T17:31:11.851Z,98904.23
2023-01-08T17:33:59.863Z,98905.61
2023-01-08T17:36:47.942Z,98913.81
2023-01-08T17:39:36.179Z,98913.39
2023-01-08T17:42:28.407Z,98912.87
2023-01-08T17:45:17.410Z,98910.59
2023-01-08T17:48:06.442Z,98912.45
2023-01-08T17:50:54.351Z,98916.17
2023-01-08T17:53:42.300Z,98919.08
2023-01-08T17:56:30.466Z,98910.91
2023-01-08T17:59:20.115Z,98912.48
2023-01-08T18:02:16.099Z,98906.80
2023-01-08T18:05:04.626Z,98910.66
2023-01-08T18:07:52.794Z,98904.66
2023-01-08T18:10:40.728Z,98900.98
2023-01-08T18:13:29.969Z,98906.27
2023-01-08T18:16:18.067Z,98917.79
2023-01-08T18:19:06.450Z,98920.38
2023-01-08T18:21:55.101Z,98908.58
2023-01-08T18:24:43.457Z,98909.25
2023-01-08T18:27:31.495Z,98902.05
2023-01-08T18:30:19.733Z,98906.23
2023-01-08T18:33:08.193Z,98900.92
2023-01-08T18:36:00.783Z,98903.24
2023-01-08T18:38:49.940Z,98902.60
2023-01-08T18:42:00.150Z,98908.91
2023-01-08T18:44:48.535Z,98888.10
2023-01-08T18:47:36.674Z,98889.15
2023-01-08T18:50:24.780Z,98891.65
2023-01-08T18:53:12.944Z,98894.42
2023-01-08T18:56:02.170Z,98899.02
2023-01-08T18:58:49.945Z,98886.00
2023-01-08T19:01:37.931Z,98894.23
2023-01-08T19:04:27.028Z,98889.44
2023-01-08T19:07:17.058Z,98898.52
2023-01-08T19:10:05.460Z,98899.35
2023-01-08T19:12:53.433Z,98893.04
2023-01-08T19:15:41.410Z,98891.85
2023-01-08T19:18:29.671Z,98887.21
2023-01-08T19:21:19.497Z,98890.52
2023-01-08T19:24:08.303Z,98904.48
2023-01-08T19:26:56.410Z,98902.94
2023-01-08T19:29:44.846Z,98903.75
2023-01-08T19:32:33.357Z,98899.92
2023-01-08T19:35:21.265Z,98901.54
2023-01-08T19:38:09.314Z,98904.67
2023-01-08T19:41:00.387Z,98900.29
2023-01-08T19:43:48.411Z,98890.35
2023-01-08T19:46:37.221Z,98892.84
2023-01-08T19:49:26.025Z,98894.86
2023-01-08T19:52:15.448Z,98896.19
2023-01-08T19:55:04.751Z,98893.59
2023-01-08T19:57:55.521Z,98891.75
2023-01-08T20:00:43.886Z,98885.79
2023-01-08T20:03:32.281Z,98886.70
2023-01-08T20:06:25.500Z,98882.96
2023-01-08T20:09:13.470Z,98894.91
2023-01-08T20:12:02.853Z,98890.64
2023-01-08T20:14:50.813Z,98898.17
2023-01-08T20:17:42.784Z,98888.60
2023-01-08T20:20:31.513Z,98881.41
2023-01-08T20:23:21.076Z,98884.80
2023-01-08T20:26:20.066Z,98886.80
2023-01-08T20:29:17.689Z,98887.69
2023-01-08T20:32:06.098Z,98888.45
2023-01-08T20:34:54.234Z,98888.66
2023-01-08T20:37:43.638Z,98882.79
2023-01-08T20:40:35.634Z,98882.65
2023-01-08T20:43:24.239Z,98873.73
2023-01-08T20:46:14.848Z,98869.95
2023-01-08T20:49:07.290Z,98865.10
2023-01-08T20:52:01.359Z,98860.41
2023-01-08T20:54:53.544Z,98854.13
2023-01-08T20:57:41.730Z,98856.03
2023-01-08T21:00:29.408Z,98849.95
2023-01-08T21:03:18.082Z,98840.34
2023-01-08T21:06:12.798Z,98837.73
2023-01-08T21:09:06.793Z,98832.79
2023-01-08T21:11:54.698Z,98833.45
2023-01-08T21:14:42.583Z,98836.59
2023-01-08T21:17:30.731Z,98842.86
2023-01-08T21:20:19.391Z,98839.52
2023-01-08T21:23:07.693Z,98839.34
2023-01-08T21:26:02.638Z,98840.83
2023-01-08T21:28:50.753Z,98834.17
2023-01-08T21:31:39.843Z,98826.27
2023-01-08T21:34:27.773Z,98817.38
2023-01-08T21:37:16.050Z,98812.86
2023-01-08T21:40:05.807Z,98810.80
2023-01-08T21:43:13.369Z,98802.85
2023-01-08T21:46:02.693Z,98797.39
2023-01-08T21:48:52.311Z,98799.97
2023-01-08T21:51:59.705Z,98803.06
2023-01-08T21:54:51.546Z,98793.21
2023-01-08T21:57:40.160Z,98792.37
2023-01-08T22:00:28.695Z,98790.55
2023-01-08T22:03:16.378Z,98790.04
2023-01-08T22:06:06.472Z,98787.16
2023-01-08T22:08:56.941Z,98795.59
2023-01-08T22:11:47.891Z,98791.08
2023-01-08T22:14:36.367Z,98787.51
2023-01-08T22:17:26.615Z,98775.67
2023-01-08T22:20:14.438Z,98765.60
2023-01-08T22:23:02.309Z,98758.90
2023-01-08T22:25:50.356Z,98766.96
2023-01-08T22:28:40.087Z,98760.39
2023-01-08T22:31:28.811Z,98741.84
2023-01-08T22:34:19.904Z,98740.22
2023-01-08T22:37:07.978Z,98748.73
2023-01-08T22:39:55.852Z,98746.41
2023-01-08T22:42:44.021Z,98737.50
2023-01-08T22:45:32.152Z,98739.80
2023-01-08T22:48:20.174Z,98740.67
2023-01-08T22:51:08.468Z,98738.21
2023-01-08T22:53:59.344Z,98733.84
2023-01-08T22:56:47.469Z,98733.68
2023-01-08T22:59:35.686Z,98734.31
2023-01-08T23:02:24.617Z,98730.05
2023-01-08T23:05:12.788Z,98728.45
2023-01-08T23:08:01.397Z,98728.09
2023-01-08T23:10:49.770Z,98723.08
2023-01-08T23:13:38.383Z,98722.77
2023-01-08T23:16:26.269Z,98713.50
2023-01-08T23:19:14.190Z,98718.83
2023-01-08T23:22:02.040Z,98718.98
2023-01-08T23:24:49.982Z,98729.83
2023-01-08T23:27:38.502Z,98727.02
2023-01-08T23:30:31.409Z,98727.78
2023-01-08T23:33:19.333Z,98733.15
2023-01-08T23:36:08.003Z,98725.50
2023-01-08T23:38:57.062Z,98718.67
2023-01-08T23:41:44.718Z,98716.80
2023-01-08T23:44:32.693Z,98712.88
2023-01-08T23:47:20.592Z,98713.46
2023-01-08T23:50:09.519Z,98722.59
2023-01-08T23:52:58.483Z,98721.91
2023-01-08T23:55:46.060Z,98728.14
2023-01-08T23:58:34.316Z,98732.48
